Airfield :
LOGIN :

Register | Disclaimer

   EN    FR    IT 

 










Legend :    VFR   Marginal VFR   IFR   Intensive IFR   Very Intensive IFR
Visi :
Ceiling :
>= 8 km
>= 3000ft
5 to 8 km
1000 to 3000 ft
1500m to 5 km
500 to 1000 ft
800 to 1500m
200 to 500 ft
< 800m
< 200 ft
Symbols :   Thunderstorms  Fog  Heavy snow  Heavy precipitations  Wind > 20 kt
SIGMETs :     Misc.  Thunderstorms  Icing  Turbulence  Mountain Waves  Volcanic Ashes






- Airport Elevation : 1768 ft


LEHC - Huesca Pirineos

CURRENT METAR :
  • 260400Z AUTO 29005KT 9999 BKN006 BKN031 BKN044 15/15 Q1027

EXPIRED METARs :
  • 260330Z AUTO 28004KT 240V300 6000 FEW010 SCT028 16/15 Q1027
  • 260300Z AUTO 00000KT 8000 SCT010 SCT014 BKN024 17/17 Q1027
  • 260230Z AUTO VRB02KT 9999 SCT015 BKN026 BKN034 17/17 Q1027
  • 260200Z AUTO 10003KT 070V130 9999 OVC018 18/17 Q1027
  • 260130Z AUTO 00000KT 9999 FEW040 FEW070 18/17 Q1027

TAF TAF LEHC
Valid from the 26 at 03:00 until the 27 at 03:00 UTC


260200Z 2603/2703 VRB04KT 9999 FEW050 TX28/2613Z TN17/2606Z
BECMG 2610/2612 25008KT
BECMG 2620/2623 09007KT



MET'MAP, your aeronautical weather chart ! - Copyright ORBIFLY December 2007 - Disclaimer

ORBIFLY MET'MAP TEAM :

Programming & Development : Alexandra Zaïnal
Concept & original design : Baudouin d'Aumeries
Assistance for programming : Marc-Olivier Méhu
Technical & hardware support : Manuel Goepfert

Contact : metmap@orbifly.com




SOURCES & CREDITS :

   NOAA